createdAt,value
2023-06-10T00:01:15.132Z,22.24
2023-06-10T00:04:17.931Z,22.28
2023-06-10T00:07:20.156Z,22.29
2023-06-10T00:10:22.469Z,22.24
2023-06-10T00:13:25.096Z,22.25
2023-06-10T00:16:27.454Z,22.23
2023-06-10T00:19:32.809Z,22.24
2023-06-10T00:22:34.972Z,22.26
2023-06-10T00:25:37.239Z,22.18
2023-06-10T00:28:39.415Z,22.10
2023-06-10T00:31:41.758Z,22.14
2023-06-10T00:34:43.984Z,22.14
2023-06-10T00:37:46.466Z,22.14
2023-06-10T00:40:48.772Z,22.09
2023-06-10T00:43:53.998Z,22.06
2023-06-10T00:46:57.118Z,22.11
2023-06-10T00:49:59.624Z,22.00
2023-06-10T00:53:01.856Z,22.03
2023-06-10T00:56:04.742Z,22.02
2023-06-10T00:59:07.684Z,21.91
2023-06-10T01:02:10.437Z,21.92
2023-06-10T01:05:13.220Z,21.93
2023-06-10T01:08:47.771Z,21.86
2023-06-10T01:11:59.572Z,21.84
2023-06-10T01:15:03.623Z,21.83
2023-06-10T01:18:10.606Z,21.84
2023-06-10T01:21:25.758Z,21.83
2023-06-10T01:24:29.429Z,21.76
2023-06-10T01:27:34.652Z,21.77
2023-06-10T01:30:57.516Z,21.79
2023-06-10T01:33:59.845Z,21.76
2023-06-10T01:37:02.924Z,21.74
2023-06-10T01:40:07.205Z,21.68
2023-06-10T01:43:10.979Z,21.65
2023-06-10T01:46:13.352Z,21.64
2023-06-10T01:49:15.850Z,21.64
2023-06-10T01:52:19.798Z,21.63
2023-06-10T01:55:22.031Z,21.69
2023-06-10T01:58:24.242Z,21.68
2023-06-10T02:01:27.142Z,21.63
2023-06-10T02:04:29.303Z,21.66
2023-06-10T02:07:31.498Z,21.64
2023-06-10T02:10:33.687Z,21.65
2023-06-10T02:13:36.002Z,21.64
2023-06-10T02:16:38.273Z,21.66
2023-06-10T02:19:43.887Z,21.60
2023-06-10T02:22:46.190Z,21.61
2023-06-10T02:25:49.303Z,21.60
2023-06-10T02:28:51.550Z,21.59
2023-06-10T02:31:54.009Z,21.54
2023-06-10T02:34:56.564Z,21.59
2023-06-10T02:38:00.768Z,21.53
2023-06-10T02:41:04.688Z,21.53
2023-06-10T02:44:07.580Z,21.51
2023-06-10T02:47:09.821Z,21.54
2023-06-10T02:50:13.628Z,21.56
2023-06-10T02:53:26.787Z,21.50
2023-06-10T02:56:37.477Z,21.50
2023-06-10T02:59:42.079Z,21.52
2023-06-10T03:02:46.964Z,21.56
2023-06-10T03:05:50.289Z,21.51
2023-06-10T03:08:54.793Z,21.56
2023-06-10T03:11:57.164Z,21.60
2023-06-10T03:14:59.666Z,21.65
2023-06-10T03:18:03.957Z,21.63
2023-06-10T03:21:06.318Z,21.67
2023-06-10T03:24:08.790Z,21.68
2023-06-10T03:27:12.061Z,21.68
2023-06-10T03:30:16.663Z,21.76
2023-06-10T03:33:21.067Z,21.71
2023-06-10T03:36:23.270Z,21.82
2023-06-10T03:39:25.664Z,21.88
2023-06-10T03:42:28.456Z,21.83
2023-06-10T03:45:31.165Z,21.82
2023-06-10T03:48:34.178Z,21.73
2023-06-10T03:51:37.614Z,21.73
2023-06-10T03:54:39.832Z,21.69
2023-06-10T03:57:42.144Z,21.71
2023-06-10T04:00:44.350Z,21.72
2023-06-10T04:03:46.519Z,21.82
2023-06-10T04:06:49.852Z,21.82
2023-06-10T04:09:52.103Z,21.85
2023-06-10T04:12:54.995Z,21.86
2023-06-10T04:15:59.051Z,21.83
2023-06-10T04:19:01.845Z,21.78
2023-06-10T04:22:05.091Z,21.73
2023-06-10T04:25:10.818Z,21.65
2023-06-10T04:28:14.844Z,21.74
2023-06-10T04:31:18.409Z,21.69
2023-06-10T04:34:20.789Z,21.62
2023-06-10T04:37:23.050Z,21.66
2023-06-10T04:40:25.910Z,21.72
2023-06-10T04:43:29.487Z,21.68
2023-06-10T04:46:33.168Z,21.67
2023-06-10T04:49:36.964Z,21.68
2023-06-10T04:52:39.144Z,21.65
2023-06-10T04:55:41.787Z,21.66
2023-06-10T04:58:44.039Z,21.73
2023-06-10T05:01:46.411Z,21.73
2023-06-10T05:04:48.641Z,21.81
2023-06-10T05:07:50.910Z,21.80
2023-06-10T05:10:53.356Z,21.84
2023-06-10T05:13:55.530Z,21.86
2023-06-10T05:16:58.117Z,21.85
2023-06-10T05:20:00.609Z,21.79
2023-06-10T05:23:02.750Z,21.88
2023-06-10T05:26:04.924Z,21.94
2023-06-10T05:29:07.169Z,22.01
2023-06-10T05:32:10.035Z,22.00
2023-06-10T05:35:12.611Z,22.08
2023-06-10T05:38:15.235Z,22.03
2023-06-10T05:41:17.446Z,22.08
2023-06-10T05:44:19.674Z,22.11
2023-06-10T05:47:21.883Z,22.13
2023-06-10T05:50:25.796Z,22.13
2023-06-10T05:53:27.983Z,22.20
2023-06-10T05:56:30.459Z,22.17
2023-06-10T05:59:32.768Z,22.11
2023-06-10T06:02:35.047Z,22.17
2023-06-10T06:05:38.542Z,22.21
2023-06-10T06:08:40.714Z,22.17
2023-06-10T06:11:42.920Z,22.22
2023-06-10T06:14:45.896Z,22.28
2023-06-10T06:17:48.191Z,22.31
2023-06-10T06:20:50.900Z,22.37
2023-06-10T06:23:53.237Z,22.41
2023-06-10T06:26:55.628Z,22.57
2023-06-10T06:29:57.897Z,22.54
2023-06-10T06:33:00.778Z,22.53
2023-06-10T06:36:03.098Z,22.55
2023-06-10T06:39:05.315Z,22.60
2023-06-10T06:42:08.344Z,22.64
2023-06-10T06:45:23.485Z,22.66
2023-06-10T06:48:25.828Z,22.66
2023-06-10T06:51:28.153Z,22.73
2023-06-10T06:54:31.691Z,22.81
2023-06-10T06:57:33.997Z,22.89
2023-06-10T07:00:36.223Z,22.90
2023-06-10T07:03:38.519Z,22.99
2023-06-10T07:06:40.863Z,23.01
2023-06-10T07:09:45.847Z,23.06
2023-06-10T07:12:48.053Z,23.06
2023-06-10T07:15:50.634Z,23.18
2023-06-10T07:18:53.945Z,23.25
2023-06-10T07:21:56.175Z,23.34
2023-06-10T07:24:59.000Z,23.37
2023-06-10T07:28:01.194Z,23.37
2023-06-10T07:31:03.449Z,23.45
2023-06-10T07:34:05.731Z,23.49
2023-06-10T07:37:07.988Z,23.56
2023-06-10T07:40:10.498Z,23.60
2023-06-10T07:43:12.712Z,23.67
2023-06-10T07:46:14.891Z,23.74
2023-06-10T07:49:17.072Z,23.76
2023-06-10T07:52:19.294Z,23.72
2023-06-10T07:55:21.590Z,23.85
2023-06-10T07:58:23.874Z,23.93
2023-06-10T08:01:26.069Z,24.00
2023-06-10T08:04:28.351Z,24.13
2023-06-10T08:07:31.955Z,24.18
2023-06-10T08:10:34.175Z,24.21
2023-06-10T08:13:36.375Z,24.24
2023-06-10T08:16:38.649Z,24.26
2023-06-10T08:19:40.817Z,24.31
2023-06-10T08:22:43.038Z,24.36
2023-06-10T08:25:45.308Z,24.33
2023-06-10T08:28:47.496Z,24.38
2023-06-10T08:31:49.822Z,24.38
2023-06-10T08:34:52.095Z,24.40
2023-06-10T08:37:54.367Z,24.42
2023-06-10T08:41:01.797Z,24.42
2023-06-10T08:44:27.936Z,24.46
2023-06-10T08:47:32.538Z,24.51
2023-06-10T08:50:40.028Z,24.58
2023-06-10T08:53:50.587Z,24.62
2023-06-10T08:56:54.699Z,24.77
2023-06-10T08:59:58.363Z,24.92
2023-06-10T09:03:04.580Z,25.02
2023-06-10T09:06:07.586Z,25.07
2023-06-10T09:09:09.907Z,25.29
2023-06-10T09:12:14.402Z,25.42
2023-06-10T09:15:18.322Z,25.51
2023-06-10T09:18:21.459Z,25.53
2023-06-10T09:21:24.202Z,25.52
2023-06-10T09:24:26.829Z,25.49
2023-06-10T09:27:33.147Z,25.42
2023-06-10T09:30:36.226Z,25.43
2023-06-10T09:33:40.492Z,25.40
2023-06-10T09:36:42.747Z,25.33
2023-06-10T09:39:45.024Z,25.30
2023-06-10T09:42:50.172Z,25.26
2023-06-10T09:45:55.264Z,25.20
2023-06-10T09:48:58.836Z,25.16
2023-06-10T09:52:01.015Z,25.09
2023-06-10T09:55:03.812Z,25.07
2023-06-10T09:58:06.154Z,25.04
2023-06-10T10:01:15.660Z,25.08
2023-06-10T10:04:24.830Z,25.07
2023-06-10T10:07:27.012Z,25.11
2023-06-10T10:10:29.402Z,25.13
2023-06-10T10:13:37.179Z,25.15
2023-06-10T10:16:44.273Z,25.16
2023-06-10T10:19:52.078Z,25.21
2023-06-10T10:22:57.926Z,25.23
2023-06-10T10:26:08.701Z,25.28
2023-06-10T10:29:29.138Z,25.31
2023-06-10T10:32:43.916Z,25.42
2023-06-10T10:35:47.472Z,25.42
2023-06-10T10:38:53.165Z,25.47
2023-06-10T10:41:56.227Z,25.51
2023-06-10T10:44:58.739Z,25.49
2023-06-10T10:48:06.667Z,25.50
2023-06-10T10:51:10.036Z,25.49
2023-06-10T10:54:16.063Z,25.55
2023-06-10T10:57:19.565Z,25.59
2023-06-10T11:00:33.040Z,25.63
2023-06-10T11:03:48.026Z,25.72
2023-06-10T11:06:54.848Z,25.80
2023-06-10T11:10:02.910Z,25.85
2023-06-10T11:13:15.089Z,25.91
2023-06-10T11:16:20.810Z,25.96
2023-06-10T11:19:33.790Z,26.05
2023-06-10T11:23:01.960Z,26.16
2023-06-10T11:26:12.131Z,26.24
2023-06-10T11:29:16.734Z,26.34
2023-06-10T11:32:19.098Z,26.42
2023-06-10T11:35:22.460Z,26.47
2023-06-10T11:38:24.749Z,26.56
2023-06-10T11:41:27.965Z,26.54
2023-06-10T11:44:31.077Z,26.50
2023-06-10T11:47:33.344Z,26.41
2023-06-10T11:50:35.637Z,26.46
2023-06-10T11:53:37.924Z,26.56
2023-06-10T11:56:40.127Z,26.61
2023-06-10T11:59:42.403Z,26.67
2023-06-10T12:02:44.750Z,26.61
2023-06-10T12:06:01.470Z,26.74
2023-06-10T12:09:18.436Z,26.84
2023-06-10T12:12:26.618Z,26.90
2023-06-10T12:15:30.077Z,26.94
2023-06-10T12:18:32.254Z,27.07
2023-06-10T12:21:36.487Z,27.11
2023-06-10T12:25:02.549Z,27.21
2023-06-10T12:28:05.331Z,27.26
2023-06-10T12:31:11.362Z,27.16
2023-06-10T12:34:13.535Z,27.14
2023-06-10T12:37:16.445Z,27.08
2023-06-10T12:40:18.838Z,27.02
2023-06-10T12:43:22.201Z,27.09
2023-06-10T12:46:25.540Z,27.13
2023-06-10T12:49:27.968Z,27.09
2023-06-10T12:52:30.299Z,27.14
2023-06-10T12:55:33.539Z,27.14
2023-06-10T12:58:35.740Z,27.12
2023-06-10T13:01:39.177Z,27.09
2023-06-10T13:04:41.552Z,27.05
2023-06-10T13:07:45.495Z,27.05
2023-06-10T13:10:47.680Z,27.04
2023-06-10T13:13:49.944Z,27.01
2023-06-10T13:16:52.215Z,27.02
2023-06-10T13:19:54.467Z,26.95
2023-06-10T13:22:56.858Z,26.94
2023-06-10T13:25:59.252Z,26.91
2023-06-10T13:29:01.407Z,26.91
2023-06-10T13:32:03.651Z,26.88
2023-06-10T13:35:06.498Z,26.86
2023-06-10T13:38:08.758Z,26.83
2023-06-10T13:41:11.240Z,26.81
2023-06-10T13:44:13.417Z,26.79
2023-06-10T13:47:16.185Z,26.73
2023-06-10T13:50:18.472Z,26.71
2023-06-10T13:53:20.748Z,26.66
2023-06-10T13:56:22.923Z,26.64
2023-06-10T13:59:25.093Z,26.60
2023-06-10T14:02:27.430Z,26.52
2023-06-10T14:05:31.886Z,26.50
2023-06-10T14:08:34.549Z,26.40
2023-06-10T14:11:36.704Z,26.29
2023-06-10T14:14:38.897Z,26.25
2023-06-10T14:17:41.134Z,26.19
2023-06-10T14:20:43.393Z,26.17
2023-06-10T14:23:46.579Z,26.15
2023-06-10T14:26:48.901Z,26.13
2023-06-10T14:29:51.126Z,26.08
2023-06-10T14:32:53.431Z,26.15
2023-06-10T14:35:55.808Z,26.28
2023-06-10T14:38:58.294Z,26.42
2023-06-10T14:42:00.538Z,26.61
2023-06-10T14:45:02.851Z,26.76
2023-06-10T14:48:05.843Z,26.84
2023-06-10T14:51:08.034Z,26.81
2023-06-10T14:54:10.393Z,26.83
2023-06-10T14:57:12.567Z,26.83
2023-06-10T15:00:16.553Z,26.87
2023-06-10T15:03:18.755Z,26.92
2023-06-10T15:06:23.784Z,26.96
2023-06-10T15:09:26.130Z,26.98
2023-06-10T15:12:28.996Z,26.99
2023-06-10T15:15:31.147Z,26.94
2023-06-10T15:18:34.244Z,26.94
2023-06-10T15:21:37.395Z,26.92
2023-06-10T15:24:39.939Z,26.85
2023-06-10T15:27:42.132Z,26.87
2023-06-10T15:30:44.426Z,26.86
2023-06-10T15:33:47.696Z,26.81
2023-06-10T15:36:50.285Z,26.73
2023-06-10T15:39:52.470Z,26.68
2023-06-10T15:42:54.646Z,26.58
2023-06-10T15:45:56.845Z,26.41
2023-06-10T15:48:59.126Z,26.30
2023-06-10T15:52:01.354Z,26.23
2023-06-10T15:55:03.836Z,26.14
2023-06-10T15:58:06.095Z,26.07
2023-06-10T16:01:10.298Z,26.00
2023-06-10T16:04:12.796Z,25.97
2023-06-10T16:07:15.013Z,25.87
2023-06-10T16:10:17.281Z,25.78
2023-06-10T16:13:19.560Z,25.70
2023-06-10T16:16:21.817Z,25.64
2023-06-10T16:19:27.853Z,25.60
2023-06-10T16:22:30.084Z,25.54
2023-06-10T16:25:34.843Z,25.49
2023-06-10T16:28:37.137Z,25.44
2023-06-10T16:31:39.368Z,25.41
2023-06-10T16:34:42.855Z,25.34
2023-06-10T16:37:45.675Z,25.31
2023-06-10T16:40:47.911Z,25.29
2023-06-10T16:43:50.145Z,25.24
2023-06-10T16:46:52.441Z,25.22
2023-06-10T16:49:54.686Z,25.19
2023-06-10T16:53:00.270Z,25.15
2023-06-10T16:56:03.422Z,25.13
2023-06-10T16:59:06.937Z,25.09
2023-06-10T17:02:09.289Z,25.10
2023-06-10T17:05:12.225Z,25.08
2023-06-10T17:08:14.724Z,25.03
2023-06-10T17:11:17.053Z,25.03
2023-06-10T17:14:19.305Z,24.95
2023-06-10T17:17:21.739Z,24.84
2023-06-10T17:20:24.052Z,24.93
2023-06-10T17:23:26.361Z,24.85
2023-06-10T17:26:28.614Z,24.85
2023-06-10T17:29:33.519Z,24.85
2023-06-10T17:32:35.854Z,24.78
2023-06-10T17:35:38.471Z,24.79
2023-06-10T17:38:40.809Z,24.78
2023-06-10T17:41:43.058Z,24.73
2023-06-10T17:44:45.443Z,24.73
2023-06-10T17:47:47.677Z,24.68
2023-06-10T17:50:49.908Z,24.68
2023-06-10T17:53:52.268Z,24.64
2023-06-10T17:56:55.243Z,24.62
2023-06-10T17:59:57.550Z,24.60
2023-06-10T18:02:59.886Z,24.60
2023-06-10T18:06:02.408Z,24.58
2023-06-10T18:09:04.652Z,24.54
2023-06-10T18:12:07.623Z,24.52
2023-06-10T18:15:10.695Z,24.53
2023-06-10T18:18:13.117Z,24.49
2023-06-10T18:21:15.578Z,24.47
2023-06-10T18:24:17.921Z,24.44
2023-06-10T18:27:20.211Z,24.43
2023-06-10T18:30:24.809Z,24.38
2023-06-10T18:33:27.933Z,24.40
2023-06-10T18:36:30.353Z,24.36
2023-06-10T18:39:34.221Z,24.23
2023-06-10T18:42:36.405Z,24.25
2023-06-10T18:45:43.322Z,24.27
2023-06-10T18:48:48.209Z,24.26
2023-06-10T18:51:50.552Z,24.22
2023-06-10T18:54:52.796Z,24.22
2023-06-10T18:57:55.036Z,24.18
2023-06-10T19:00:57.682Z,24.17
2023-06-10T19:04:00.999Z,24.15
2023-06-10T19:07:03.536Z,24.11
2023-06-10T19:10:06.526Z,24.12
2023-06-10T19:13:09.121Z,24.15
2023-06-10T19:16:11.269Z,24.13
2023-06-10T19:19:13.564Z,24.11
2023-06-10T19:22:15.742Z,24.10
2023-06-10T19:25:20.149Z,24.08
2023-06-10T19:28:22.296Z,24.09
2023-06-10T19:31:24.554Z,24.08
2023-06-10T19:34:27.325Z,24.06
2023-06-10T19:37:29.493Z,24.03
2023-06-10T19:40:32.722Z,24.03
2023-06-10T19:43:34.969Z,24.00
2023-06-10T19:46:37.205Z,23.97
2023-06-10T19:49:39.373Z,23.94
2023-06-10T19:52:41.575Z,23.94
2023-06-10T19:55:43.815Z,23.89
2023-06-10T19:58:47.485Z,23.86
2023-06-10T20:01:49.755Z,23.85
2023-06-10T20:04:51.980Z,23.80
2023-06-10T20:07:54.154Z,23.78
2023-06-10T20:10:56.375Z,23.76
2023-06-10T20:13:58.603Z,23.74
2023-06-10T20:17:00.749Z,23.74
2023-06-10T20:20:03.335Z,23.69
2023-06-10T20:23:05.581Z,23.62
2023-06-10T20:26:07.750Z,23.67
2023-06-10T20:29:09.971Z,23.64
2023-06-10T20:32:14.838Z,23.60
2023-06-10T20:35:17.108Z,23.57
2023-06-10T20:38:19.372Z,23.57
2023-06-10T20:41:22.720Z,23.59
2023-06-10T20:44:25.036Z,23.54
2023-06-10T20:47:27.214Z,23.55
2023-06-10T20:50:31.751Z,23.54
2023-06-10T20:53:33.911Z,23.49
2023-06-10T20:56:36.281Z,23.50
2023-06-10T20:59:38.500Z,23.47
2023-06-10T21:02:40.756Z,23.48
2023-06-10T21:05:43.016Z,23.49
2023-06-10T21:08:45.473Z,23.45
2023-06-10T21:11:47.625Z,23.47
2023-06-10T21:14:49.789Z,23.48
2023-06-10T21:17:52.080Z,23.47
2023-06-10T21:20:54.387Z,23.44
2023-06-10T21:23:56.784Z,23.45
2023-06-10T21:26:59.860Z,23.48
2023-06-10T21:30:03.140Z,23.41
2023-06-10T21:33:05.848Z,23.42
2023-06-10T21:36:08.059Z,23.41
2023-06-10T21:39:10.381Z,23.44
2023-06-10T21:42:12.827Z,23.33
2023-06-10T21:45:15.067Z,23.39
2023-06-10T21:48:17.267Z,23.34
2023-06-10T21:51:19.633Z,23.32
2023-06-10T21:54:21.802Z,23.33
2023-06-10T21:57:24.118Z,23.28
2023-06-10T22:00:26.349Z,23.28
2023-06-10T22:03:28.688Z,23.26
2023-06-10T22:06:31.980Z,23.20
2023-06-10T22:09:34.206Z,23.11
2023-06-10T22:12:36.623Z,23.14
2023-06-10T22:15:38.787Z,23.16
2023-06-10T22:18:41.326Z,23.14
2023-06-10T22:21:43.522Z,23.13
2023-06-10T22:24:50.620Z,23.14
2023-06-10T22:27:52.907Z,23.03
2023-06-10T22:30:55.592Z,23.07
2023-06-10T22:33:57.927Z,23.03
2023-06-10T22:37:00.165Z,23.01
2023-06-10T22:40:03.689Z,23.01
2023-06-10T22:43:05.922Z,23.00
2023-06-10T22:46:08.128Z,23.01
2023-06-10T22:49:12.727Z,22.98
2023-06-10T22:52:14.932Z,23.06
2023-06-10T22:55:17.193Z,23.03
2023-06-10T22:58:21.210Z,22.99
2023-06-10T23:01:23.554Z,22.98
2023-06-10T23:04:25.850Z,22.99
2023-06-10T23:07:28.139Z,22.92
2023-06-10T23:10:30.464Z,22.96
2023-06-10T23:13:32.666Z,23.02
2023-06-10T23:16:34.931Z,22.98
2023-06-10T23:19:41.754Z,22.93
2023-06-10T23:22:44.120Z,22.95
2023-06-10T23:25:46.370Z,22.92
2023-06-10T23:28:48.551Z,22.93
2023-06-10T23:31:50.947Z,22.93
2023-06-10T23:34:53.245Z,22.91
2023-06-10T23:37:55.660Z,22.87
2023-06-10T23:40:57.882Z,22.90
2023-06-10T23:44:00.108Z,22.90
2023-06-10T23:47:02.338Z,22.88
2023-06-10T23:50:05.520Z,22.76
2023-06-10T23:53:07.805Z,22.85
2023-06-10T23:56:10.097Z,22.89
2023-06-10T23:59:12.276Z,22.91
